Time;durP1;ratioP1;P1;durP2;ratioP2;P2;SDS_P1;SDS_P2;PMS_P1;PMS_P2;Temp;Humidity;BMP_temperature;BMP_pressure;BME280_temperature;BME280_humidity;BME280_pressure;Samples;Min_cycle;Max_cycle;Signal;HPM_P1;HPM_P2
2022/04/19 00:00:49;707912.00;2.36;1220.96;32549.00;0.11;56.99;;;;;12.60;1.00;;;;;;2278220;61;1896;-90
2022/04/19 00:10:43;551995.00;1.84;951.40;0.00;0.00;0.62;;;;;13.60;1.00;;;;;;2282396;61;1398;-85
2022/04/19 00:13:12;35667.00;0.12;62.39;0.00;0.00;0.62;;;;;13.40;1.00;;;;;;2280455;61;1788;-84
2022/04/19 00:18:11;532349.00;1.77;917.54;0.00;0.00;0.62;;;;;13.80;1.00;;;;;;2281364;55;3736;-88
2022/04/19 00:20:42;226650.00;0.76;391.79;6482.00;0.02;11.85;;;;;13.70;1.00;;;;;;2280541;61;1982;-86
2022/04/19 00:23:12;46727.00;0.16;81.53;0.00;0.00;0.62;;;;;13.60;1.00;;;;;;2280592;61;1136;-86
2022/04/19 00:25:40;80496.00;0.27;139.89;0.00;0.00;0.62;;;;;13.40;1.00;;;;;;2280087;61;1026;-88
2022/04/19 00:28:08;178794.00;0.60;309.41;0.00;0.00;0.62;;;;;14.10;1.00;;;;;;2280451;61;1754;-86
2022/04/19 00:30:35;176907.00;0.59;306.16;0.00;0.00;0.62;;;;;14.40;1.00;;;;;;2280564;61;1192;-87
2022/04/19 00:33:02;53432.00;0.18;93.12;0.00;0.00;0.62;;;;;14.40;1.00;;;;;;2280601;61;1733;-86
2022/04/19 00:35:31;172846.00;0.58;299.17;0.00;0.00;0.62;;;;;14.30;1.00;;;;;;2280469;61;1557;-89
2022/04/19 00:37:59;265681.00;0.89;458.92;0.00;0.00;0.62;;;;;14.10;1.00;;;;;;2280588;61;1146;-89
2022/04/19 00:40:26;93617.00;0.31;162.55;0.00;0.00;0.62;;;;;14.10;1.00;;;;;;2338269;40;3620;-89
2022/04/19 00:42:54;266729.00;0.89;460.72;0.00;0.00;0.62;;;;;14.10;1.00;;;;;;2329008;39;3604;-87
2022/04/19 00:45:22;391182.00;1.30;674.65;0.00;0.00;0.62;;;;;14.10;1.00;;;;;;2284276;60;1859;-85
2022/04/19 00:47:50;80571.00;0.27;140.02;0.00;0.00;0.62;;;;;14.40;1.00;;;;;;2284649;60;1508;-85
2022/04/19 00:50:17;117660.00;0.39;204.05;0.00;0.00;0.62;;;;;14.20;1.00;;;;;;2284114;60;1405;-88
2022/04/19 00:52:47;54222.00;0.18;94.49;0.00;0.00;0.62;;;;;14.10;1.00;;;;;;2291813;39;3597;-86
2022/04/19 00:57:44;239767.00;0.80;414.35;0.00;0.00;0.62;;;;;13.70;1.00;;;;;;2273834;61;1389;-89
2022/04/19 01:00:12;121032.00;0.40;209.86;0.00;0.00;0.62;;;;;13.90;1.00;;;;;;2297456;40;3684;-85
2022/04/19 01:02:40;162265.00;0.54;280.94;0.00;0.00;0.62;;;;;13.60;1.00;;;;;;2284470;60;1650;-87
2022/04/19 01:05:10;175925.00;0.59;304.47;0.00;0.00;0.62;;;;;12.90;1.00;;;;;;2284479;60;1543;-87
2022/04/19 01:07:37;484131.00;1.61;834.51;63423.00;0.21;110.39;;;;;12.10;1.00;;;;;;2284338;60;1548;-87
2022/04/19 01:10:08;269008.00;0.90;464.64;5805.00;0.02;10.68;;;;;11.90;1.00;;;;;;2284351;60;1498;-87
2022/04/19 01:15:07;743243.00;2.48;1282.31;0.00;0.00;0.62;;;;;12.00;1.00;;;;;;2313761;40;3628;-88
2022/04/19 01:17:35;423952.00;1.41;730.99;0.00;0.00;0.62;;;;;12.00;1.00;;;;;;2284419;60;1597;-88
2022/04/19 01:20:03;489132.00;1.63;843.11;19497.00;0.06;34.40;;;;;12.00;1.00;;;;;;2284220;60;2005;-89
2022/04/19 01:22:36;654135.00;2.18;1127.79;0.00;0.00;0.62;;;;;11.90;1.00;;;;;;2282458;39;3606;-87
2022/04/19 01:27:32;1163939.00;3.88;2025.16;44056.00;0.15;76.91;;;;;11.30;1.00;;;;;;2364533;39;3622;-88
2022/04/19 01:30:02;385036.00;1.28;664.08;36290.00;0.12;63.47;;;;;11.30;1.00;;;;;;2272218;61;1748;-88
2022/04/19 01:32:29;591544.00;1.97;1019.62;6058.00;0.02;11.12;;;;;11.30;1.00;;;;;;2294009;40;3661;-87
2022/04/19 01:35:07;895976.00;2.99;1549.05;84797.00;0.28;147.32;;;;;11.70;1.00;;;;;;2280317;60;1650;-88
2022/04/19 01:37:37;423905.00;1.41;730.90;0.00;0.00;0.62;;;;;11.70;1.00;;;;;;2280291;60;1685;-88
2022/04/19 01:45:03;1598552.00;5.33;2829.97;51612.00;0.17;89.97;;;;;10.90;1.00;;;;;;2277726;61;1401;-87
2022/04/19 01:47:30;714842.00;2.38;1232.99;23838.00;0.08;41.92;;;;;11.30;1.00;;;;;;2276204;61;1514;-90
2022/04/19 01:49:58;1040394.00;3.47;1804.15;69110.00;0.23;120.22;;;;;11.30;1.00;;;;;;2412231;40;3733;-86
2022/04/19 01:52:25;431984.00;1.44;744.80;0.00;0.00;0.62;;;;;11.10;1.00;;;;;;2284333;60;1277;-88
2022/04/19 01:57:27;1128503.00;3.76;1961.47;29681.00;0.10;52.03;;;;;10.30;1.00;;;;;;2277874;61;1428;-88
2022/04/19 01:59:54;383941.00;1.28;662.20;0.00;0.00;0.62;;;;;10.50;1.00;;;;;;2276002;60;1621;-88
2022/04/19 02:02:23;1076154.00;3.59;1867.83;147012.00;0.49;254.66;;;;;10.20;1.00;;;;;;2276179;60;1100;-87
2022/04/19 02:04:51;881787.00;2.94;1524.15;39853.00;0.13;69.63;;;;;10.40;1.00;;;;;;2276073;60;1668;-87
2022/04/19 02:09:48;1154305.00;3.85;2007.82;50879.00;0.17;88.71;;;;;10.90;1.00;;;;;;2281772;61;1404;-90
2022/04/19 02:12:16;694916.00;2.32;1198.42;0.00;0.00;0.62;;;;;10.70;1.00;;;;;;2280164;61;1060;-89
2022/04/19 02:14:44;762644.00;2.54;1316.05;59873.00;0.20;104.26;;;;;10.20;1.00;;;;;;2280148;61;1734;-87
2022/04/19 02:17:12;926016.00;3.09;1601.86;11204.00;0.04;20.04;;;;;10.20;1.00;;;;;;2280128;61;1486;-87
2022/04/19 02:19:39;921368.00;3.07;1593.68;47313.00;0.16;82.54;;;;;10.20;1.00;;;;;;2299298;40;3612;-86
2022/04/19 02:34:35;825974.00;2.75;1426.46;0.00;0.00;0.62;;;;;9.90;1.00;;;;;;2277278;61;1359;-86
2022/04/19 02:37:03;546891.00;1.82;942.60;0.00;0.00;0.62;;;;;9.60;1.00;;;;;;2325528;40;3603;-88
2022/04/19 02:39:30;379661.00;1.27;654.84;7576.00;0.03;13.75;;;;;9.70;1.00;;;;;;2284532;60;1646;-88
2022/04/19 02:41:57;300824.00;1.00;519.34;0.00;0.00;0.62;;;;;9.90;1.00;;;;;;2284885;60;1919;-87
2022/04/19 02:49:21;558162.00;1.86;962.03;0.00;0.00;0.62;;;;;10.00;1.00;;;;;;2279441;61;1304;-87
2022/04/19 02:56:49;759625.00;2.53;1310.80;40871.00;0.14;71.40;;;;;9.70;1.00;;;;;;2278045;61;1393;-87
2022/04/19 02:59:16;568231.00;1.89;979.40;2764.00;0.01;5.41;;;;;9.60;1.00;;;;;;2292929;56;3752;-86
2022/04/19 03:01:43;477779.00;1.59;823.58;0.00;0.00;0.62;;;;;9.70;1.00;;;;;;2284645;60;1996;-85
2022/04/19 03:14:03;697562.00;2.33;1203.01;0.00;0.00;0.62;;;;;9.70;1.00;;;;;;2306894;55;3657;-85
2022/04/19 03:16:30;64620.00;0.22;112.46;0.00;0.00;0.62;;;;;9.80;1.00;;;;;;2276736;61;1652;-86
2022/04/19 03:21:26;608457.00;2.03;1048.82;0.00;0.00;0.62;;;;;9.80;1.00;;;;;;2278331;61;1907;-86
2022/04/19 03:31:55;463110.00;1.54;798.34;0.00;0.00;0.62;;;;;9.70;1.00;;;;;;2282327;61;1370;-87
2022/04/19 03:34:22;128283.00;0.43;222.37;0.00;0.00;0.62;;;;;9.80;1.00;;;;;;2280581;61;1633;-88
2022/04/19 03:36:51;197835.00;0.66;342.20;0.00;0.00;0.62;;;;;9.50;1.00;;;;;;2280676;61;1637;-88
2022/04/19 03:41:59;648149.00;2.16;1117.43;0.00;0.00;0.62;;;;;10.00;1.00;;;;;;2278290;61;1976;-91
2022/04/19 03:47:09;346868.00;1.16;598.48;0.00;0.00;0.62;;;;;10.30;1.00;;;;;;2282322;61;1441;-87
2022/04/19 03:52:12;597633.00;1.99;1030.13;0.00;0.00;0.62;;;;;10.70;1.00;;;;;;2274233;61;1438;-88
2022/04/19 03:57:10;716986.00;2.39;1236.71;0.00;0.00;0.62;;;;;11.30;1.00;;;;;;2282226;61;1363;-88
2022/04/19 04:07:07;722677.00;2.41;1246.59;0.00;0.00;0.62;;;;;11.40;1.00;;;;;;2274282;61;1387;-87
2022/04/19 04:09:35;148328.00;0.49;256.93;0.00;0.00;0.62;;;;;11.70;1.00;;;;;;2272436;61;1791;-87
2022/04/19 04:12:03;80929.00;0.27;140.64;0.00;0.00;0.62;;;;;11.50;1.00;;;;;;2272376;61;1499;-88
2022/04/19 04:16:59;457061.00;1.52;787.93;0.00;0.00;0.62;;;;;11.00;1.00;;;;;;2282198;61;1387;-86
2022/04/19 04:56:56;647038.00;2.16;1115.51;0.00;0.00;0.62;;;;;11.20;1.00;;;;;;2285646;55;3642;-88
2022/04/19 05:21:48;118972664.00;396.58;68215912.00;86709.00;0.29;150.62;;;;;11.40;1.00;;;;;;2196285;39;3569;-87
2022/04/19 05:29:12;1024955.00;3.42;1776.72;112749.00;0.38;195.57;;;;;12.10;1.00;;;;;;2273840;61;1466;-87
2022/04/19 05:31:39;278668.00;0.93;481.25;80418.00;0.27;139.76;;;;;12.50;1.00;;;;;;2271816;61;1601;-90
2022/04/19 05:34:06;248953.00;0.83;430.15;79218.00;0.26;137.69;;;;;12.50;1.00;;;;;;2271892;61;1152;-89
2022/04/19 05:36:33;325574.00;1.09;561.88;94885.00;0.32;164.74;;;;;13.20;1.00;;;;;;2271988;61;1028;-91
2022/04/19 05:39:01;407459.00;1.36;702.63;99025.00;0.33;171.89;;;;;13.70;1.00;;;;;;2271782;61;1359;-89
2022/04/19 05:41:28;477395.00;1.59;822.91;85569.00;0.29;148.66;;;;;14.00;1.00;;;;;;2271951;61;1926;-88
2022/04/19 05:43:55;316597.00;1.06;546.45;78391.00;0.26;136.26;;;;;14.00;1.00;;;;;;2271832;61;1550;-88
2022/04/19 05:46:22;250577.00;0.84;432.94;100127.00;0.33;173.79;;;;;14.60;1.00;;;;;;2271764;61;1746;-88
2022/04/19 06:07:14;943263.00;3.14;1632.23;6715.00;0.02;12.26;;;;;19.40;1.00;;;;;;2514846;40;3401;31
2022/04/19 06:12:12;917325.00;3.06;1586.57;19054.00;0.06;33.63;;;;;19.90;1.00;;;;;;2371084;40;3591;-88
2022/04/19 06:27:08;563069.00;1.88;970.49;0.00;0.00;0.62;;;;;21.50;1.00;;;;;;2278403;61;1366;-90
2022/04/19 07:34:39;717050.00;2.39;1236.82;80523.00;0.27;139.94;;;;;22.70;1.00;;;;;;2278839;61;1292;-89
2022/04/19 07:44:41;902047.00;3.01;1559.72;78780.00;0.26;136.93;;;;;23.30;1.00;;;;;;2279072;61;1303;-88
2022/04/19 07:47:08;282653.00;0.94;488.10;81902.00;0.27;142.32;;;;;23.50;1.00;;;;;;2277263;61;1628;-89
2022/04/19 07:54:30;777370.00;2.59;1341.68;90325.00;0.30;156.87;;;;;23.80;1.00;;;;;;2279280;61;1300;-88
2022/04/19 09:16:39;847718.00;2.83;1464.47;0.00;0.00;0.62;;;;;21.30;1.00;;;;;;2176245;56;3610;-87
2022/04/19 09:19:09;0.00;0.00;0.62;0.00;0.00;0.62;;;;;21.40;1.00;;;;;;2272265;61;1332;-88
2022/04/19 09:21:37;0.00;0.00;0.62;0.00;0.00;0.62;;;;;21.20;1.00;;;;;;2272293;61;1914;-89
2022/04/19 09:24:18;57398.00;0.19;99.98;0.00;0.00;0.62;;;;;21.50;1.00;;;;;;2272380;61;1010;-87
2022/04/19 09:26:45;49295.00;0.16;85.97;0.00;0.00;0.62;;;;;21.50;1.00;;;;;;2272375;61;1109;-88
2022/04/19 09:29:20;11392.00;0.04;20.36;0.00;0.00;0.62;;;;;21.70;1.00;;;;;;2272273;61;2370;-85
2022/04/19 09:31:50;0.00;0.00;0.62;0.00;0.00;0.62;;;;;21.70;1.00;;;;;;2272447;61;1127;-84
2022/04/19 09:34:29;66520.00;0.22;115.75;0.00;0.00;0.62;;;;;21.30;1.00;;;;;;2272371;61;1097;-86
2022/04/19 09:37:07;0.00;0.00;0.62;0.00;0.00;0.62;;;;;21.40;1.00;;;;;;2272365;61;938;-86
2022/04/19 10:09:55;1170857.00;3.90;2037.62;0.00;0.00;0.62;;;;;20.30;1.00;;;;;;2274365;61;1356;-88
2022/04/19 10:12:23;410777.00;1.37;708.33;0.00;0.00;0.62;;;;;20.00;1.00;;;;;;2272821;61;1696;-90
2022/04/19 10:35:03;747221.00;2.49;1289.23;0.00;0.00;0.62;;;;;20.20;1.00;;;;;;2278745;61;1007;-89
2022/04/19 10:47:28;908111.00;3.03;1570.37;9892.00;0.03;17.76;;;;;20.00;1.00;;;;;;2278635;61;1316;-88
2022/04/19 11:07:43;1002813.00;3.34;1737.45;130115.00;0.43;225.53;;;;;20.40;1.00;;;;;;2279114;61;1095;-89
2022/04/19 11:52:27;1023162.00;3.41;1773.54;51756.00;0.17;90.22;;;;;19.00;1.00;;;;;;2274679;61;1229;-90
2022/04/19 11:54:57;692384.00;2.31;1194.03;0.00;0.00;0.62;;;;;19.40;1.00;;;;;;2273128;61;1526;-91
2022/04/19 11:57:24;710582.00;2.37;1225.59;14889.00;0.05;26.42;;;;;20.10;1.00;;;;;;2273175;61;1173;-88
2022/04/19 12:27:27;1158650.00;3.86;2015.63;116468.00;0.39;201.99;;;;;18.50;1.00;;;;;;2274926;61;1306;-89
2022/04/19 12:32:25;1183658.00;3.95;2060.70;90917.00;0.30;157.89;;;;;18.40;1.00;;;;;;2278810;61;1348;-89
2022/04/19 12:35:08;436851.00;1.46;753.17;86324.00;0.29;149.96;;;;;18.40;1.00;;;;;;2277344;61;435;-90
2022/04/19 12:37:35;848782.00;2.83;1466.34;5902.00;0.02;10.85;;;;;18.60;1.00;;;;;;2276736;61;1527;-92
2022/04/19 12:40:03;496934.00;1.66;856.55;101278.00;0.34;175.78;;;;;19.10;1.00;;;;;;2276739;61;1338;-89
2022/04/19 13:35:12;328054.00;1.09;566.14;0.00;0.00;0.62;;;;;19.00;1.00;;;;;;2282786;61;1184;-87
2022/04/19 14:27:46;343531.00;1.15;592.74;0.00;0.00;0.62;;;;;18.80;1.00;;;;;;2293714;56;3609;-88
2022/04/19 15:02:59;454688.00;1.52;783.85;47692.00;0.16;83.19;;;;;19.10;1.00;;;;;;2294899;40;3511;-87
2022/04/19 15:15:22;143441.00;0.48;248.50;0.00;0.00;0.62;;;;;19.10;1.00;;;;;;2290476;55;3663;-88
2022/04/19 15:27:46;394788.00;1.32;680.85;0.00;0.00;0.62;;;;;18.60;1.00;;;;;;2283153;61;1320;-89
2022/04/19 16:00:12;789241.00;2.63;1362.37;99960.00;0.33;173.50;;;;;18.90;1.00;;;;;;2274884;61;1326;-86
2022/04/19 16:02:42;738827.00;2.46;1274.64;106965.00;0.36;185.59;;;;;18.90;1.00;;;;;;2329331;40;3617;-87
2022/04/19 16:30:22;870723.00;2.90;1504.76;77384.00;0.26;134.52;;;;;18.00;1.00;;;;;;1960547;56;3680;-90
2022/04/19 16:32:51;340489.00;1.13;587.51;91008.00;0.30;158.05;;;;;18.10;1.00;;;;;;2326139;55;3784;31
2022/04/19 17:00:20;965361.00;3.22;1671.22;90237.00;0.30;156.72;;;;;18.50;1.00;;;;;;1585104;55;3567;-90
2022/04/19 17:07:49;587902.00;1.96;1013.34;89104.00;0.30;154.76;;;;;18.10;1.00;;;;;;2286734;60;1213;-88
2022/04/19 17:12:48;671707.00;2.24;1158.21;120159.00;0.40;208.36;;;;;18.20;1.00;;;;;;2281081;61;1204;-88
2022/04/19 17:15:15;429740.00;1.43;740.94;82112.00;0.27;142.69;;;;;18.40;1.00;;;;;;2280682;61;1319;-88
2022/04/19 17:27:15;0.00;0.00;0.62;0.00;0.00;0.62;;;;;18.10;1.00;;;;;;2276412;61;1662;-87
2022/04/19 17:29:42;39130.00;0.13;68.38;0.00;0.00;0.62;;;;;17.70;1.00;;;;;;2276551;61;1541;-87
2022/04/19 17:32:09;145288.00;0.48;251.69;0.00;0.00;0.62;;;;;17.60;1.00;;;;;;2276539;61;1040;-89
2022/04/19 17:34:36;30522.00;0.10;53.49;0.00;0.00;0.62;;;;;17.80;1.00;;;;;;2276718;61;1593;-88
2022/04/19 17:37:03;44515.00;0.15;77.70;0.00;0.00;0.62;;;;;17.70;1.00;;;;;;2276574;61;1008;-85
2022/04/19 17:39:30;10113.00;0.03;18.14;0.00;0.00;0.62;;;;;17.70;1.00;;;;;;2276499;61;1368;-86
2022/04/19 17:41:57;28570.00;0.10;50.11;0.00;0.00;0.62;;;;;17.80;1.00;;;;;;2276552;61;1923;-86
2022/04/19 17:44:26;0.00;0.00;0.62;0.00;0.00;0.62;;;;;17.70;1.00;;;;;;2276661;61;1202;-85
2022/04/19 17:46:54;59628.00;0.20;103.83;0.00;0.00;0.62;;;;;17.70;1.00;;;;;;2276582;61;1244;-88
2022/04/19 17:49:21;0.00;0.00;0.62;0.00;0.00;0.62;;;;;17.80;1.00;;;;;;2276547;61;1377;-86
2022/04/19 17:57:19;156429.00;0.52;270.89;0.00;0.00;0.62;;;;;18.30;1.00;;;;;;2276312;61;1330;-88
2022/04/19 17:59:49;0.00;0.00;0.62;0.00;0.00;0.62;;;;;18.00;1.00;;;;;;2276430;61;1274;-86
2022/04/19 18:02:17;911.00;0.00;2.20;0.00;0.00;0.62;;;;;17.90;1.00;;;;;;2276430;61;1927;-85
2022/04/19 18:04:44;0.00;0.00;0.62;0.00;0.00;0.62;;;;;18.00;1.00;;;;;;2276519;61;1147;-87
2022/04/19 18:07:12;294125.00;0.98;507.82;35406.00;0.12;61.94;;;;;18.00;1.00;;;;;;2276380;61;1108;-87
2022/04/19 18:09:40;215931.00;0.72;373.34;0.00;0.00;0.62;;;;;17.80;1.00;;;;;;2276223;61;1408;-88
2022/04/19 18:12:08;295772.00;0.99;510.65;0.00;0.00;0.62;;;;;17.90;1.00;;;;;;2276376;61;1699;-85
2022/04/19 18:14:37;966891.00;3.22;1673.92;39924.00;0.13;69.76;;;;;17.60;1.00;;;;;;2276301;61;1764;-86
2022/04/19 18:17:05;827823.00;2.76;1429.69;61315.00;0.20;106.75;;;;;17.30;1.00;;;;;;2276344;61;1135;-88
2022/04/19 18:19:32;594084.00;1.98;1024.01;102263.00;0.34;177.48;;;;;17.30;1.00;;;;;;2276354;61;1504;-88
2022/04/19 18:27:28;194688.00;0.65;336.78;62894.00;0.21;109.48;;;;;17.60;1.00;;;;;;2276388;61;675;-88
2022/04/19 18:29:55;896501.00;2.99;1549.98;120579.00;0.40;209.08;;;;;17.50;1.00;;;;;;2276146;61;1583;-87
2022/04/19 18:32:24;1402092.00;4.67;2460.20;158637.00;0.53;274.69;;;;;17.40;1.00;;;;;;2276168;61;1095;-86
2022/04/19 18:34:51;422327.00;1.41;728.19;83151.00;0.28;144.48;;;;;17.40;1.00;;;;;;2276347;61;1013;-87
2022/04/19 18:37:18;383691.00;1.28;661.77;118477.00;0.39;205.46;;;;;17.30;1.00;;;;;;2276262;61;1264;-87
2022/04/19 18:39:47;380201.00;1.27;655.77;112661.00;0.38;195.42;;;;;17.30;1.00;;;;;;2276288;61;1323;-88
2022/04/19 18:44:44;342568.00;1.14;591.09;90217.00;0.30;156.68;;;;;17.00;1.00;;;;;;2285788;39;3615;-89
2022/04/19 18:47:11;226822.00;0.76;392.08;67020.00;0.22;116.61;;;;;16.80;1.00;;;;;;2276246;61;1070;-89
2022/04/19 18:49:40;15222.00;0.05;27.00;0.00;0.00;0.62;;;;;16.80;1.00;;;;;;2276397;61;1397;-88
2022/04/19 18:54:36;451329.00;1.50;778.07;0.00;0.00;0.62;;;;;16.70;1.00;;;;;;2345549;55;3644;-85
2022/04/19 19:22:33;158049.00;0.53;273.68;0.00;0.00;0.62;;;;;16.40;1.00;;;;;;762356;59;1879;-86
2022/04/19 19:25:01;119232.00;0.40;206.76;0.00;0.00;0.62;;;;;16.60;1.00;;;;;;2280887;60;1661;-87
2022/04/19 19:27:29;214784.00;0.72;371.37;0.00;0.00;0.62;;;;;16.60;1.00;;;;;;2280874;60;1419;-85
2022/04/19 19:29:57;36941.00;0.12;64.60;0.00;0.00;0.62;;;;;16.70;1.00;;;;;;2280817;60;1770;-86
2022/04/19 19:32:24;31784.00;0.11;55.67;0.00;0.00;0.62;;;;;16.50;1.00;;;;;;2280905;60;1222;-88
2022/04/19 19:34:51;312561.00;1.04;539.51;49460.00;0.16;86.25;;;;;16.20;1.00;;;;;;2280747;60;1164;-88
2022/04/19 19:37:18;105353.00;0.35;182.81;0.00;0.00;0.62;;;;;16.10;1.00;;;;;;2280827;60;1079;-88
2022/04/19 19:39:47;230130.00;0.77;397.77;0.00;0.00;0.62;;;;;16.00;1.00;;;;;;2280782;60;1564;-89
2022/04/19 19:42:16;0.00;0.00;0.62;0.00;0.00;0.62;;;;;16.10;1.00;;;;;;2280934;60;1031;-89
2022/04/19 19:44:43;0.00;0.00;0.62;0.00;0.00;0.62;;;;;16.10;1.00;;;;;;2280961;60;1926;-87
2022/04/19 19:47:10;33832.00;0.11;59.22;0.00;0.00;0.62;;;;;15.90;1.00;;;;;;2280876;60;1737;-88
2022/04/19 19:49:37;251108.00;0.84;433.86;0.00;0.00;0.62;;;;;15.40;1.00;;;;;;2280713;60;1359;-89
2022/04/19 19:52:05;119938.00;0.40;207.98;0.00;0.00;0.62;;;;;15.20;1.00;;;;;;2280895;60;913;-88
2022/04/19 19:54:32;121979.00;0.41;211.50;0.00;0.00;0.62;;;;;15.10;1.00;;;;;;2280919;60;905;-89
2022/04/19 19:57:00;9752.00;0.03;17.52;0.00;0.00;0.62;;;;;15.30;1.00;;;;;;2280791;60;1776;-90
2022/04/19 19:59:27;118450024.00;394.83;67320048.00;0.00;0.00;0.62;;;;;15.10;1.00;;;;;;2280861;60;1277;-89
2022/04/19 20:01:54;260950.00;0.87;450.78;0.00;0.00;0.62;;;;;14.90;1.00;;;;;;2280784;60;1105;-87
2022/04/19 20:04:21;188980.00;0.63;326.95;0.00;0.00;0.62;;;;;14.80;1.00;;;;;;2280600;60;2026;-88
2022/04/19 20:06:48;111850.00;0.37;194.02;31331.00;0.10;54.89;;;;;14.90;1.00;;;;;;2280792;60;1588;-88
2022/04/19 20:09:15;106852.00;0.36;185.40;0.00;0.00;0.62;;;;;15.20;1.00;;;;;;2280824;60;1284;-86
2022/04/19 20:11:42;83373.00;0.28;144.86;0.00;0.00;0.62;;;;;15.40;1.00;;;;;;2280658;60;963;-87
2022/04/19 20:14:11;184147.00;0.61;318.63;29594.00;0.10;51.88;;;;;15.60;1.00;;;;;;2280698;60;1492;-86
2022/04/19 20:16:38;231333.00;0.77;399.84;0.00;0.00;0.62;;;;;15.50;1.00;;;;;;2280642;60;908;-86
2022/04/19 20:19:05;104905.00;0.35;182.04;0.00;0.00;0.62;;;;;15.60;1.00;;;;;;2280563;60;1390;-87
2022/04/19 20:21:32;177791.00;0.59;307.69;0.00;0.00;0.62;;;;;16.00;1.00;;;;;;2280636;60;1135;-87
2022/04/19 20:24:01;212955.00;0.71;368.22;0.00;0.00;0.62;;;;;16.40;1.00;;;;;;2280581;60;1907;-87
2022/04/19 20:26:28;69133.00;0.23;120.26;0.00;0.00;0.62;;;;;16.60;1.00;;;;;;2280574;60;1147;-86
2022/04/19 20:28:55;132653.00;0.44;229.90;0.00;0.00;0.62;;;;;16.80;1.00;;;;;;2280563;60;1405;-86
2022/04/19 20:31:25;206115.00;0.69;356.45;0.00;0.00;0.62;;;;;16.50;1.00;;;;;;2280584;60;1450;-88
2022/04/19 20:33:52;27646.00;0.09;48.51;0.00;0.00;0.62;;;;;15.80;1.00;;;;;;2280508;60;1262;-87
2022/04/19 20:36:19;42002.00;0.14;73.35;0.00;0.00;0.62;;;;;15.50;1.00;;;;;;2280721;60;1094;-87
2022/04/19 20:38:47;0.00;0.00;0.62;0.00;0.00;0.62;;;;;15.20;1.00;;;;;;2280720;60;1400;-87
2022/04/19 20:41:14;187072.00;0.62;323.67;0.00;0.00;0.62;;;;;14.80;1.00;;;;;;2292239;55;3763;-86
2022/04/19 20:43:41;240966.00;0.80;416.41;57210.00;0.19;99.65;;;;;14.30;1.00;;;;;;2284667;60;1915;-86
2022/04/19 20:46:08;62709.00;0.21;109.16;0.00;0.00;0.62;;;;;14.00;1.00;;;;;;2284674;60;949;-86
2022/04/19 20:51:22;0.00;0.00;0.62;0.00;0.00;0.62;;;;;13.50;1.00;;;;;;2284849;60;634;-86
2022/04/19 20:53:49;19901.00;0.07;35.10;0.00;0.00;0.62;;;;;13.20;1.00;;;;;;2284771;60;1037;-86
2022/04/19 20:56:17;54448.00;0.18;94.88;0.00;0.00;0.62;;;;;13.20;1.00;;;;;;2284672;60;1093;-85
2022/04/19 20:58:44;174264.00;0.58;301.61;0.00;0.00;0.62;;;;;13.10;1.00;;;;;;2284809;60;1401;-87
2022/04/19 21:01:12;274304.00;0.91;473.74;83007.00;0.28;144.23;;;;;13.10;1.00;;;;;;2292839;55;3786;-88
2022/04/19 21:06:09;186120.00;0.62;322.03;0.00;0.00;0.62;;;;;13.70;1.00;;;;;;2278812;61;1336;-87
2022/04/19 21:08:36;69136.00;0.23;120.27;0.00;0.00;0.62;;;;;14.40;1.00;;;;;;2277045;61;1218;-89
2022/04/19 21:11:03;350206.00;1.17;604.22;0.00;0.00;0.62;;;;;14.90;1.00;;;;;;2277066;61;1103;-89
2022/04/19 21:13:31;821.00;0.00;2.04;0.00;0.00;0.62;;;;;15.20;1.00;;;;;;2277024;61;1095;-87
2022/04/19 21:15:58;148732.00;0.50;257.62;7820.00;0.03;14.17;;;;;15.50;1.00;;;;;;2276431;61;1139;-85
2022/04/19 21:18:25;174178.00;0.58;301.46;16541.00;0.06;29.28;;;;;15.00;1.00;;;;;;2276252;61;1295;-89
2022/04/19 21:20:53;227763.00;0.76;393.70;40979.00;0.14;71.58;;;;;14.70;1.00;;;;;;2276425;61;1567;-87
2022/04/19 21:23:22;47943.00;0.16;83.63;0.00;0.00;0.62;;;;;14.60;1.00;;;;;;2276258;61;2009;-87
2022/04/19 21:25:49;54048.00;0.18;94.19;0.00;0.00;0.62;;;;;14.60;1.00;;;;;;2276419;61;1837;-87
2022/04/19 21:28:17;181028.00;0.60;313.26;0.00;0.00;0.62;;;;;14.40;1.00;;;;;;2276345;61;1788;-86
2022/04/19 21:30:44;308041.00;1.03;531.74;25237.00;0.08;44.34;;;;;14.40;1.00;;;;;;2276551;61;985;-88
2022/04/19 21:33:11;101453.00;0.34;176.08;0.00;0.00;0.62;;;;;14.20;1.00;;;;;;2276320;61;2199;-87
2022/04/19 21:35:38;161470.00;0.54;279.57;3110.00;0.01;6.01;;;;;14.30;1.00;;;;;;2276305;61;1681;-87
2022/04/19 21:38:06;322759.00;1.08;557.04;9673.00;0.03;17.38;;;;;14.30;1.00;;;;;;2276382;61;1124;-87
2022/04/19 21:40:34;304334.00;1.01;525.37;0.00;0.00;0.62;;;;;14.00;1.00;;;;;;2276420;61;1312;-87
2022/04/19 21:43:01;186034.00;0.62;321.88;0.00;0.00;0.62;;;;;14.10;1.00;;;;;;2276263;61;1926;-88
2022/04/19 21:45:28;511293.00;1.70;881.27;101428.00;0.34;176.04;;;;;14.10;1.00;;;;;;2276265;61;1141;-89
2022/04/19 21:47:55;384564.00;1.28;663.27;68571.00;0.23;119.29;;;;;14.20;1.00;;;;;;2276328;61;1471;-86
2022/04/19 21:50:22;687808.00;2.29;1186.10;62649.00;0.21;109.06;;;;;13.90;1.00;;;;;;2276206;61;1769;-88
2022/04/19 21:52:49;359235.00;1.20;619.73;0.00;0.00;0.62;;;;;14.20;1.00;;;;;;2296047;55;3762;-87
2022/04/19 21:55:16;537399.00;1.79;926.24;5517.00;0.02;10.18;;;;;14.20;1.00;;;;;;2284841;60;1630;-87
2022/04/19 21:57:44;523782.00;1.75;902.78;19200.00;0.06;33.88;;;;;14.20;1.00;;;;;;2284495;60;1107;-87
2022/04/19 22:00:19;419167.00;1.40;722.76;35698.00;0.12;62.44;;;;;14.50;1.00;;;;;;2284295;60;1402;-85
2022/04/19 22:02:46;273830.00;0.91;472.93;4486.00;0.01;8.39;;;;;14.60;1.00;;;;;;2284139;60;1739;-87
2022/04/19 22:05:13;437722.00;1.46;754.67;50607.00;0.17;88.24;;;;;14.40;1.00;;;;;;2283907;61;1928;-86
2022/04/19 22:07:40;390863.00;1.30;674.10;14496.00;0.05;25.74;;;;;14.30;1.00;;;;;;2284267;60;1659;-86
2022/04/19 22:10:08;331314.00;1.10;571.74;31013.00;0.10;54.34;;;;;14.20;1.00;;;;;;2284303;60;1684;-87
2022/04/19 22:12:35;355383.00;1.18;613.11;0.00;0.00;0.62;;;;;13.90;1.00;;;;;;2284237;60;1087;-86
2022/04/19 22:15:04;262178.00;0.87;452.89;31200.00;0.10;54.66;;;;;14.00;1.00;;;;;;2304608;55;3799;-86
2022/04/19 22:17:31;140746.00;0.47;243.86;0.00;0.00;0.62;;;;;14.00;1.00;;;;;;2276277;61;1035;-87
2022/04/19 22:19:58;389925.00;1.30;672.49;0.00;0.00;0.62;;;;;14.10;1.00;;;;;;2289103;40;3635;-87
2022/04/19 22:22:25;218397.00;0.73;377.59;0.00;0.00;0.62;;;;;14.00;1.00;;;;;;2289440;40;3614;-86
2022/04/19 22:24:53;252827.00;0.84;436.81;0.00;0.00;0.62;;;;;13.80;1.00;;;;;;2284294;60;1993;-86
2022/04/19 22:27:20;235907.00;0.79;407.71;15893.00;0.05;28.16;;;;;13.90;1.00;;;;;;2284411;60;1170;-86
2022/04/19 22:29:50;340377.00;1.13;587.32;18535.00;0.06;32.73;;;;;14.00;1.00;;;;;;2284352;60;2021;-87
2022/04/19 22:32:18;136706.00;0.46;236.89;0.00;0.00;0.62;;;;;14.10;1.00;;;;;;2284224;60;1737;-86
2022/04/19 22:34:45;650408.00;2.17;1121.34;2280.00;0.01;4.57;;;;;14.10;1.00;;;;;;2284369;60;1736;-86
2022/04/19 22:37:12;715689.00;2.39;1234.46;35812.00;0.12;62.64;;;;;14.20;1.00;;;;;;2284374;60;1146;-87
2022/04/19 22:47:12;343358.00;1.14;592.45;0.00;0.00;0.62;;;;;12.90;1.00;;;;;;2281627;61;1386;-83
2022/04/19 22:49:40;105556.00;0.35;183.16;5598.00;0.02;10.32;;;;;13.10;1.00;;;;;;2280124;61;1765;-85
2022/04/19 22:52:08;189929.00;0.63;328.59;0.00;0.00;0.62;;;;;13.60;1.00;;;;;;2280142;61;1073;-87
2022/04/19 22:54:35;321769.00;1.07;555.34;0.00;0.00;0.62;;;;;13.80;1.00;;;;;;2286407;39;3754;-86
2022/04/19 22:57:02;473117.00;1.58;815.55;0.00;0.00;0.62;;;;;13.60;1.00;;;;;;2328023;56;3707;-86
2022/04/19 22:59:29;440916.00;1.47;760.16;0.00;0.00;0.62;;;;;13.40;1.00;;;;;;2284176;56;3718;-85
2022/04/19 23:01:58;144379.00;0.48;250.12;0.00;0.00;0.62;;;;;13.40;1.00;;;;;;2276819;61;1072;-83
2022/04/19 23:04:26;171998.00;0.57;297.71;0.00;0.00;0.62;;;;;13.60;1.00;;;;;;2276706;61;1916;-85
2022/04/19 23:06:55;0.00;0.00;0.62;0.00;0.00;0.62;;;;;13.70;1.00;;;;;;2276583;61;1796;-84
2022/04/19 23:09:22;192799.00;0.64;333.53;0.00;0.00;0.62;;;;;13.90;1.00;;;;;;2276807;61;1316;-89
2022/04/19 23:11:49;849928.00;2.83;1468.34;114067.00;0.38;197.85;;;;;13.70;1.00;;;;;;2276807;61;1274;-86
2022/04/19 23:14:16;980756.00;3.27;1698.42;8113.00;0.03;14.68;;;;;13.70;1.00;;;;;;2276775;61;1465;-86